MSC Regina — 3FGF9 — position and weather

sailwx.info

Track history (hours):
 
Tides and Currents Weather Stations Pressure Air Temp Water Temp Dewpoint Dewpoint Depression Visibility Wind Speed Wind Dir Waves Ship Positions

MSC Regina

Last reported at 2017-Dec-17 12:01 UTC. Time now 2017-Dec-17 12:04 UTC.
Position N 05°31' E 000°39'.

Length 259 m; draft 10.3 m.

Type: Ship (hazmat cat A). MMSI: 357331980.

Date/timePositionNaut miles runAvg speedWind from/ knotsBaromVisibWave heightAir tempDewpointWater temp
2017-Dec-17 12:01N 05°31' E 000°39'1910.6
2017-Dec-17 10:11N 05°30' E 000°59'210.2
2017-Dec-17 10:01N 05°30' E 001°00'510.5
2017-Dec-17 09:31N 05°32' E 001°05'145 4.2
2017-Dec-15 22:53N 06°26' E 003°21'0 0.0
2017-Dec-15 21:53N 06°26' E 003°21'0 0.0
2017-Dec-15 21:29N 06°26' E 003°21'0 0.0
2017-Dec-15 18:35N 06°26' E 003°21'0 0.0
2017-Dec-15 18:29N 06°26' E 003°21'0 0.0
2017-Dec-15 17:59N 06°26' E 003°21'1 0.0
2017-Dec-14 17:18N 06°26' E 003°21'2 5.5
2017-Dec-14 17:00N 06°26' E 003°23'3 5.4
2017-Dec-14 16:30N 06°24' E 003°24'26316.8
2017-Dec-14 00:49N 04°05' W 000°20'  
2017-Dec-08 00:13N 27°39' W 015°14'415.9
2017-Dec-07 23:59N 27°42' W 015°13'715.5
2017-Dec-07 23:30N 27°50' W 015°12'815.1
2017-Dec-07 23:00N 27°57' W 015°12'713.5
2017-Dec-07 22:30N 28°03' W 015°17'713.8
2017-Dec-07 22:00N 28°07' W 015°23'2 3.8
2017-Dec-07 21:30N 28°08' W 015°25'0 0.2
2017-Dec-07 20:52N 28°08' W 015°25'0 0.0
2017-Dec-07 20:25N 28°08' W 015°25'0 0.0
2017-Dec-07 19:52N 28°08' W 015°25'0 0.0
2017-Dec-07 19:28N 28°08' W 015°25'0 0.0
2017-Dec-07 18:58N 28°08' W 015°25'0 0.0
2017-Dec-07 18:28N 28°08' W 015°25'0 0.0
2017-Dec-07 17:58N 28°08' W 015°25'0 0.0
2017-Dec-07 17:28N 28°08' W 015°25'0 0.0
2017-Dec-07 16:58N 28°08' W 015°25'0 0.0
2017-Dec-07 16:28N 28°08' W 015°25'0 0.0
2017-Dec-07 15:58N 28°08' W 015°25'0 0.0
2017-Dec-07 15:28N 28°08' W 015°25'0 0.0
2017-Dec-07 14:58N 28°08' W 015°25'0 0.0
2017-Dec-07 14:28N 28°08' W 015°25'0 0.0
2017-Dec-07 13:58N 28°08' W 015°25'0 0.0
2017-Dec-07 13:28N 28°08' W 015°25'0 0.0
2017-Dec-07 12:58N 28°08' W 015°25'1 3.0
2017-Dec-07 12:30N 28°07' W 015°24'  
Track history (hours):
 
Tides and Currents Weather Stations Pressure Air Temp Water Temp Dewpoint Dewpoint Depression Visibility Wind Speed Wind Dir Waves Ship Positions

MSC Regina

Last reported at 2017-Dec-17 12:01 UTC. Time now 2017-Dec-17 12:04 UTC.
Position N 05°31' E 000°39'.

Length 259 m; draft 10.3 m.

Type: Ship (hazmat cat A). MMSI: 357331980.

Date/timePositionNaut miles runAvg speedWind from/ knotsBaromVisibWave heightAir tempDewpointWater temp
2017-Dec-17 12:01N 05°31' E 000°39'1910.6
2017-Dec-17 10:11N 05°30' E 000°59'210.2
2017-Dec-17 10:01N 05°30' E 001°00'510.5
2017-Dec-17 09:31N 05°32' E 001°05'145 4.2
2017-Dec-15 22:53N 06°26' E 003°21'0 0.0
2017-Dec-15 21:53N 06°26' E 003°21'0 0.0
2017-Dec-15 21:29N 06°26' E 003°21'0 0.0
2017-Dec-15 18:35N 06°26' E 003°21'0 0.0
2017-Dec-15 18:29N 06°26' E 003°21'0 0.0
2017-Dec-15 17:59N 06°26' E 003°21'1 0.0
2017-Dec-14 17:18N 06°26' E 003°21'2 5.5
2017-Dec-14 17:00N 06°26' E 003°23'3 5.4
2017-Dec-14 16:30N 06°24' E 003°24'26316.8
2017-Dec-14 00:49N 04°05' W 000°20'  
2017-Dec-08 00:13N 27°39' W 015°14'415.9
2017-Dec-07 23:59N 27°42' W 015°13'715.5
2017-Dec-07 23:30N 27°50' W 015°12'815.1
2017-Dec-07 23:00N 27°57' W 015°12'713.5
2017-Dec-07 22:30N 28°03' W 015°17'713.8
2017-Dec-07 22:00N 28°07' W 015°23'2 3.8
2017-Dec-07 21:30N 28°08' W 015°25'0 0.2
2017-Dec-07 20:52N 28°08' W 015°25'0 0.0
2017-Dec-07 20:25N 28°08' W 015°25'0 0.0
2017-Dec-07 19:52N 28°08' W 015°25'0 0.0
2017-Dec-07 19:28N 28°08' W 015°25'0 0.0
2017-Dec-07 18:58N 28°08' W 015°25'0 0.0
2017-Dec-07 18:28N 28°08' W 015°25'0 0.0
2017-Dec-07 17:58N 28°08' W 015°25'0 0.0
2017-Dec-07 17:28N 28°08' W 015°25'0 0.0
2017-Dec-07 16:58N 28°08' W 015°25'0 0.0
2017-Dec-07 16:28N 28°08' W 015°25'0 0.0
2017-Dec-07 15:58N 28°08' W 015°25'0 0.0
2017-Dec-07 15:28N 28°08' W 015°25'0 0.0
2017-Dec-07 14:58N 28°08' W 015°25'0 0.0
2017-Dec-07 14:28N 28°08' W 015°25'0 0.0
2017-Dec-07 13:58N 28°08' W 015°25'0 0.0
2017-Dec-07 13:28N 28°08' W 015°25'0 0.0
2017-Dec-07 12:58N 28°08' W 015°25'1 3.0
2017-Dec-07 12:30N 28°07' W 015°24'  

Dump ship's entire track history